sensor_id;sensor_type;location;lat;lon;timestamp;P1;durP1;ratioP1;P2;durP2;ratioP2
7273;SDS011;3678;60.002;17.846;2022-11-27T14:50:57;11.80;;;6.77;;
7273;SDS011;3678;60.002;17.846;2022-11-27T14:53:25;14.93;;;7.60;;
7273;SDS011;3678;60.002;17.846;2022-11-27T14:55:53;14.40;;;7.50;;
7273;SDS011;3678;60.002;17.846;2022-11-27T14:58:23;16.93;;;7.53;;
7273;SDS011;3678;60.002;17.846;2022-11-27T15:00:51;17.67;;;7.50;;
7273;SDS011;3678;60.002;17.846;2022-11-27T15:03:18;15.37;;;7.23;;
7273;SDS011;3678;60.002;17.846;2022-11-27T15:05:50;17.67;;;7.83;;
7273;SDS011;3678;60.002;17.846;2022-11-27T15:08:19;14.17;;;6.90;;
7273;SDS011;3678;60.002;17.846;2022-11-27T15:10:47;13.97;;;6.87;;
7273;SDS011;3678;60.002;17.846;2022-11-27T15:13:19;16.87;;;7.30;;
7273;SDS011;3678;60.002;17.846;2022-11-27T15:15:51;14.47;;;6.87;;
7273;SDS011;3678;60.002;17.846;2022-11-27T15:18:20;19.70;;;6.47;;
7273;SDS011;3678;60.002;17.846;2022-11-27T15:20:47;16.00;;;6.63;;
7273;SDS011;3678;60.002;17.846;2022-11-27T15:23:15;16.83;;;6.60;;
7273;SDS011;3678;60.002;17.846;2022-11-27T15:25:47;17.20;;;7.37;;
7273;SDS011;3678;60.002;17.846;2022-11-27T15:28:31;16.17;;;6.43;;
7273;SDS011;3678;60.002;17.846;2022-11-27T15:30:59;17.80;;;6.60;;
7273;SDS011;3678;60.002;17.846;2022-11-27T15:33:26;15.37;;;5.90;;
7273;SDS011;3678;60.002;17.846;2022-11-27T15:36:05;19.97;;;6.60;;
7273;SDS011;3678;60.002;17.846;2022-11-27T15:38:38;15.43;;;6.80;;
7273;SDS011;3678;60.002;17.846;2022-11-27T15:41:16;15.97;;;6.27;;
7273;SDS011;3678;60.002;17.846;2022-11-27T15:43:44;14.57;;;6.07;;
7273;SDS011;3678;60.002;17.846;2022-11-27T15:46:11;17.57;;;6.93;;
7273;SDS011;3678;60.002;17.846;2022-11-27T15:48:40;17.47;;;5.80;;
7273;SDS011;3678;60.002;17.846;2022-11-27T15:51:07;14.93;;;5.77;;
7273;SDS011;3678;60.002;17.846;2022-11-27T15:53:34;14.60;;;6.07;;
7273;SDS011;3678;60.002;17.846;2022-11-27T15:56:01;18.17;;;6.27;;
7273;SDS011;3678;60.002;17.846;2022-11-27T15:58:30;15.67;;;6.43;;
7273;SDS011;3678;60.002;17.846;2022-11-27T16:00:57;18.25;;;8.18;;
7273;SDS011;3678;60.002;17.846;2022-11-27T16:03:24;14.63;;;6.73;;
7273;SDS011;3678;60.002;17.846;2022-11-27T16:05:51;14.67;;;6.73;;
7273;SDS011;3678;60.002;17.846;2022-11-27T16:08:18;13.47;;;6.30;;
7273;SDS011;3678;60.002;17.846;2022-11-27T16:10:46;12.97;;;6.17;;
7273;SDS011;3678;60.002;17.846;2022-11-27T16:13:13;14.97;;;6.50;;
7273;SDS011;3678;60.002;17.846;2022-11-27T16:15:41;13.73;;;6.53;;
7273;SDS011;3678;60.002;17.846;2022-11-27T16:18:08;14.67;;;6.73;;
7273;SDS011;3678;60.002;17.846;2022-11-27T16:20:36;14.33;;;6.03;;
7273;SDS011;3678;60.002;17.846;2022-11-27T16:23:03;9.23;;;5.40;;
7273;SDS011;3678;60.002;17.846;2022-11-27T16:25:30;13.87;;;5.90;;
7273;SDS011;3678;60.002;17.846;2022-11-27T16:27:57;14.07;;;6.10;;
7273;SDS011;3678;60.002;17.846;2022-11-27T16:30:24;14.52;;;6.97;;
7273;SDS011;3678;60.002;17.846;2022-11-27T16:32:53;14.83;;;5.70;;
7273;SDS011;3678;60.002;17.846;2022-11-27T16:35:20;9.80;;;5.40;;
7273;SDS011;3678;60.002;17.846;2022-11-27T16:37:47;10.03;;;5.50;;
7273;SDS011;3678;60.002;17.846;2022-11-27T16:40:14;14.97;;;6.13;;
7273;SDS011;3678;60.002;17.846;2022-11-27T16:42:41;8.17;;;4.37;;
7273;SDS011;3678;60.002;17.846;2022-11-27T16:45:09;15.95;;;6.65;;
7273;SDS011;3678;60.002;17.846;2022-11-27T16:47:36;14.93;;;6.27;;
7273;SDS011;3678;60.002;17.846;2022-11-27T16:50:06;16.60;;;5.93;;
7273;SDS011;3678;60.002;17.846;2022-11-27T16:52:34;12.10;;;5.77;;
7273;SDS011;3678;60.002;17.846;2022-11-27T16:55:01;12.50;;;5.37;;
7273;SDS011;3678;60.002;17.846;2022-11-27T16:57:28;11.03;;;5.57;;
7273;SDS011;3678;60.002;17.846;2022-11-27T16:59:55;13.57;;;6.77;;
7273;SDS011;3678;60.002;17.846;2022-11-27T17:02:23;13.80;;;5.77;;
7273;SDS011;3678;60.002;17.846;2022-11-27T17:04:52;19.53;;;7.37;;
7273;SDS011;3678;60.002;17.846;2022-11-27T17:07:21;11.83;;;6.10;;
7273;SDS011;3678;60.002;17.846;2022-11-27T17:09:48;15.00;;;6.40;;
7273;SDS011;3678;60.002;17.846;2022-11-27T17:12:15;12.53;;;6.33;;
7273;SDS011;3678;60.002;17.846;2022-11-27T17:14:42;22.13;;;7.40;;
7273;SDS011;3678;60.002;17.846;2022-11-27T17:17:11;30.03;;;8.50;;
7273;SDS011;3678;60.002;17.846;2022-11-27T17:19:38;26.37;;;8.63;;
7273;SDS011;3678;60.002;17.846;2022-11-27T17:22:05;20.60;;;8.03;;
7273;SDS011;3678;60.002;17.846;2022-11-27T17:24:34;18.37;;;8.23;;
7273;SDS011;3678;60.002;17.846;2022-11-27T17:27:01;21.70;;;9.07;;
7273;SDS011;3678;60.002;17.846;2022-11-27T17:29:28;28.43;;;8.83;;
7273;SDS011;3678;60.002;17.846;2022-11-27T17:31:56;27.50;;;8.33;;
7273;SDS011;3678;60.002;17.846;2022-11-27T17:34:23;28.27;;;9.63;;
7273;SDS011;3678;60.002;17.846;2022-11-27T17:36:50;22.57;;;7.90;;
7273;SDS011;3678;60.002;17.846;2022-11-27T17:39:21;36.67;;;9.07;;
7273;SDS011;3678;60.002;17.846;2022-11-27T17:41:50;25.47;;;8.30;;
7273;SDS011;3678;60.002;17.846;2022-11-27T17:44:17;24.70;;;8.13;;
7273;SDS011;3678;60.002;17.846;2022-11-27T17:46:44;26.30;;;8.40;;
7273;SDS011;3678;60.002;17.846;2022-11-27T17:49:14;29.60;;;9.90;;
7273;SDS011;3678;60.002;17.846;2022-11-27T17:51:41;33.13;;;8.90;;
7273;SDS011;3678;60.002;17.846;2022-11-27T17:54:09;27.43;;;9.20;;
7273;SDS011;3678;60.002;17.846;2022-11-27T17:56:37;23.53;;;9.03;;
7273;SDS011;3678;60.002;17.846;2022-11-27T17:59:08;23.20;;;8.37;;
7273;SDS011;3678;60.002;17.846;2022-11-27T18:01:36;20.17;;;8.27;;
7273;SDS011;3678;60.002;17.846;2022-11-27T18:04:03;22.30;;;7.80;;
7273;SDS011;3678;60.002;17.846;2022-11-27T18:06:31;31.50;;;8.70;;
7273;SDS011;3678;60.002;17.846;2022-11-27T18:09:00;25.20;;;7.70;;
7273;SDS011;3678;60.002;17.846;2022-11-27T18:11:28;33.17;;;8.23;;
7273;SDS011;3678;60.002;17.846;2022-11-27T18:13:55;31.30;;;7.63;;
7273;SDS011;3678;60.002;17.846;2022-11-27T18:16:25;51.83;;;10.77;;
7273;SDS011;3678;60.002;17.846;2022-11-27T18:18:53;57.20;;;9.73;;
7273;SDS011;3678;60.002;17.846;2022-11-27T18:21:20;51.43;;;9.23;;
7273;SDS011;3678;60.002;17.846;2022-11-27T18:23:48;40.77;;;10.30;;
7273;SDS011;3678;60.002;17.846;2022-11-27T18:26:16;46.73;;;10.07;;
7273;SDS011;3678;60.002;17.846;2022-11-27T18:28:44;27.03;;;8.40;;
7273;SDS011;3678;60.002;17.846;2022-11-27T18:31:12;35.13;;;8.13;;
7273;SDS011;3678;60.002;17.846;2022-11-27T18:33:41;35.80;;;10.30;;
7273;SDS011;3678;60.002;17.846;2022-11-27T18:36:08;32.37;;;8.77;;
7273;SDS011;3678;60.002;17.846;2022-11-27T18:38:37;35.13;;;8.33;;
7273;SDS011;3678;60.002;17.846;2022-11-27T18:41:05;39.37;;;9.83;;
7273;SDS011;3678;60.002;17.846;2022-11-27T18:43:32;26.47;;;8.57;;
7273;SDS011;3678;60.002;17.846;2022-11-27T18:45:59;22.40;;;8.60;;
7273;SDS011;3678;60.002;17.846;2022-11-27T18:48:27;29.63;;;8.70;;
7273;SDS011;3678;60.002;17.846;2022-11-27T18:51:01;27.40;;;8.80;;
7273;SDS011;3678;60.002;17.846;2022-11-27T18:53:28;23.63;;;9.00;;
7273;SDS011;3678;60.002;17.846;2022-11-27T18:55:59;29.43;;;8.53;;
7273;SDS011;3678;60.002;17.846;2022-11-27T18:58:26;25.17;;;8.83;;
7273;SDS011;3678;60.002;17.846;2022-11-27T19:00:55;24.77;;;8.87;;
7273;SDS011;3678;60.002;17.846;2022-11-27T19:03:22;22.23;;;7.73;;
7273;SDS011;3678;60.002;17.846;2022-11-27T19:05:49;21.80;;;8.80;;
7273;SDS011;3678;60.002;17.846;2022-11-27T19:08:18;30.43;;;9.53;;
7273;SDS011;3678;60.002;17.846;2022-11-27T19:10:46;22.87;;;8.50;;
7273;SDS011;3678;60.002;17.846;2022-11-27T19:13:13;24.73;;;8.03;;
7273;SDS011;3678;60.002;17.846;2022-11-27T19:15:40;22.73;;;8.00;;
7273;SDS011;3678;60.002;17.846;2022-11-27T19:18:07;23.30;;;8.40;;
7273;SDS011;3678;60.002;17.846;2022-11-27T19:20:35;24.00;;;9.60;;
7273;SDS011;3678;60.002;17.846;2022-11-27T19:23:02;20.70;;;7.97;;
7273;SDS011;3678;60.002;17.846;2022-11-27T19:25:35;25.13;;;8.10;;
7273;SDS011;3678;60.002;17.846;2022-11-27T19:28:04;24.13;;;8.93;;
7273;SDS011;3678;60.002;17.846;2022-11-27T19:30:32;24.05;;;9.13;;
7273;SDS011;3678;60.002;17.846;2022-11-27T19:33:00;18.27;;;7.47;;
7273;SDS011;3678;60.002;17.846;2022-11-27T19:35:28;16.67;;;7.17;;
7273;SDS011;3678;60.002;17.846;2022-11-27T19:37:56;15.90;;;6.87;;
7273;SDS011;3678;60.002;17.846;2022-11-27T19:40:24;18.13;;;6.47;;
7273;SDS011;3678;60.002;17.846;2022-11-27T19:42:53;18.63;;;7.30;;
7273;SDS011;3678;60.002;17.846;2022-11-27T19:45:21;21.88;;;8.50;;
7273;SDS011;3678;60.002;17.846;2022-11-27T19:47:48;24.53;;;7.90;;
7273;SDS011;3678;60.002;17.846;2022-11-27T19:50:18;24.55;;;8.52;;
7273;SDS011;3678;60.002;17.846;2022-11-27T19:52:46;17.00;;;6.93;;
7273;SDS011;3678;60.002;17.846;2022-11-27T19:55:13;20.20;;;7.17;;
7273;SDS011;3678;60.002;17.846;2022-11-27T19:57:40;19.10;;;6.90;;
7273;SDS011;3678;60.002;17.846;2022-11-27T20:00:10;21.17;;;7.97;;
7273;SDS011;3678;60.002;17.846;2022-11-27T20:02:37;19.13;;;6.63;;
7273;SDS011;3678;60.002;17.846;2022-11-27T20:05:05;17.90;;;6.20;;
7273;SDS011;3678;60.002;17.846;2022-11-27T20:07:33;20.77;;;7.47;;
7273;SDS011;3678;60.002;17.846;2022-11-27T20:10:00;27.87;;;7.27;;
7273;SDS011;3678;60.002;17.846;2022-11-27T20:12:27;28.57;;;8.63;;
7273;SDS011;3678;60.002;17.846;2022-11-27T20:15:00;19.60;;;7.47;;
7273;SDS011;3678;60.002;17.846;2022-11-27T20:17:28;24.77;;;8.23;;
7273;SDS011;3678;60.002;17.846;2022-11-27T20:19:56;26.27;;;8.33;;
7273;SDS011;3678;60.002;17.846;2022-11-27T20:22:24;30.40;;;8.27;;
7273;SDS011;3678;60.002;17.846;2022-11-27T20:24:51;27.53;;;8.60;;
7273;SDS011;3678;60.002;17.846;2022-11-27T20:27:19;36.20;;;8.70;;
7273;SDS011;3678;60.002;17.846;2022-11-27T20:29:47;29.70;;;9.10;;
7273;SDS011;3678;60.002;17.846;2022-11-27T20:32:14;22.50;;;8.37;;
7273;SDS011;3678;60.002;17.846;2022-11-27T20:34:43;35.90;;;8.90;;
7273;SDS011;3678;60.002;17.846;2022-11-27T20:37:10;30.10;;;8.37;;
7273;SDS011;3678;60.002;17.846;2022-11-27T20:39:38;24.90;;;9.00;;
7273;SDS011;3678;60.002;17.846;2022-11-27T20:42:05;26.63;;;9.40;;
7273;SDS011;3678;60.002;17.846;2022-11-27T20:44:33;26.27;;;9.47;;
7273;SDS011;3678;60.002;17.846;2022-11-27T20:47:00;27.93;;;8.43;;
7273;SDS011;3678;60.002;17.846;2022-11-27T20:49:28;25.80;;;8.83;;
7273;SDS011;3678;60.002;17.846;2022-11-27T20:51:59;30.57;;;8.77;;
7273;SDS011;3678;60.002;17.846;2022-11-27T20:54:27;25.87;;;8.70;;
7273;SDS011;3678;60.002;17.846;2022-11-27T20:56:54;20.97;;;7.50;;
7273;SDS011;3678;60.002;17.846;2022-11-27T20:59:22;25.63;;;7.97;;
7273;SDS011;3678;60.002;17.846;2022-11-27T21:01:49;25.27;;;8.50;;
7273;SDS011;3678;60.002;17.846;2022-11-27T21:04:18;25.20;;;9.47;;
7273;SDS011;3678;60.002;17.846;2022-11-27T21:06:45;23.87;;;8.27;;
7273;SDS011;3678;60.002;17.846;2022-11-27T21:09:14;21.53;;;8.30;;
7273;SDS011;3678;60.002;17.846;2022-11-27T21:11:41;24.73;;;8.50;;
7273;SDS011;3678;60.002;17.846;2022-11-27T21:14:10;25.80;;;9.53;;
7273;SDS011;3678;60.002;17.846;2022-11-27T21:16:39;30.65;;;10.88;;
7273;SDS011;3678;60.002;17.846;2022-11-27T21:19:09;26.40;;;9.30;;
7273;SDS011;3678;60.002;17.846;2022-11-27T21:21:37;30.65;;;10.75;;
7273;SDS011;3678;60.002;17.846;2022-11-27T21:24:04;23.80;;;9.20;;
7273;SDS011;3678;60.002;17.846;2022-11-27T21:26:33;22.47;;;8.57;;
7273;SDS011;3678;60.002;17.846;2022-11-27T21:29:00;21.33;;;8.30;;
7273;SDS011;3678;60.002;17.846;2022-11-27T21:31:27;29.27;;;11.07;;
7273;SDS011;3678;60.002;17.846;2022-11-27T21:33:56;24.63;;;9.07;;
7273;SDS011;3678;60.002;17.846;2022-11-27T21:36:25;27.40;;;8.73;;
7273;SDS011;3678;60.002;17.846;2022-11-27T21:38:52;18.70;;;8.20;;
7273;SDS011;3678;60.002;17.846;2022-11-27T21:41:20;24.80;;;8.00;;
7273;SDS011;3678;60.002;17.846;2022-11-27T21:43:52;18.63;;;7.73;;
7273;SDS011;3678;60.002;17.846;2022-11-27T21:46:20;21.67;;;9.00;;
7273;SDS011;3678;60.002;17.846;2022-11-27T21:48:48;25.37;;;7.87;;
7273;SDS011;3678;60.002;17.846;2022-11-27T21:51:16;21.90;;;8.93;;
7273;SDS011;3678;60.002;17.846;2022-11-27T21:53:45;19.83;;;8.40;;
7273;SDS011;3678;60.002;17.846;2022-11-27T21:56:13;19.33;;;8.30;;
7273;SDS011;3678;60.002;17.846;2022-11-27T21:58:41;19.97;;;7.87;;
7273;SDS011;3678;60.002;17.846;2022-11-27T22:01:10;20.40;;;7.33;;
7273;SDS011;3678;60.002;17.846;2022-11-27T22:03:38;22.37;;;7.87;;
7273;SDS011;3678;60.002;17.846;2022-11-27T22:06:06;17.13;;;7.60;;
7273;SDS011;3678;60.002;17.846;2022-11-27T22:08:36;20.53;;;8.33;;
7273;SDS011;3678;60.002;17.846;2022-11-27T22:11:04;22.93;;;9.63;;
7273;SDS011;3678;60.002;17.846;2022-11-27T22:13:32;20.33;;;8.90;;
7273;SDS011;3678;60.002;17.846;2022-11-27T22:16:00;22.43;;;9.23;;
7273;SDS011;3678;60.002;17.846;2022-11-27T22:18:29;22.20;;;8.10;;
7273;SDS011;3678;60.002;17.846;2022-11-27T22:20:56;20.73;;;8.50;;
7273;SDS011;3678;60.002;17.846;2022-11-27T22:23:28;19.93;;;8.43;;
7273;SDS011;3678;60.002;17.846;2022-11-27T22:25:58;19.43;;;8.27;;
7273;SDS011;3678;60.002;17.846;2022-11-27T22:28:25;23.00;;;9.07;;
7273;SDS011;3678;60.002;17.846;2022-11-27T22:30:52;17.30;;;8.67;;
7273;SDS011;3678;60.002;17.846;2022-11-27T22:33:20;19.07;;;8.47;;
7273;SDS011;3678;60.002;17.846;2022-11-27T22:35:48;20.00;;;9.23;;
7273;SDS011;3678;60.002;17.846;2022-11-27T22:38:16;20.70;;;8.83;;
7273;SDS011;3678;60.002;17.846;2022-11-27T22:40:43;20.80;;;9.50;;
7273;SDS011;3678;60.002;17.846;2022-11-27T22:43:10;20.77;;;9.43;;
7273;SDS011;3678;60.002;17.846;2022-11-27T22:45:37;20.13;;;8.80;;
7273;SDS011;3678;60.002;17.846;2022-11-27T22:48:11;25.20;;;10.00;;
7273;SDS011;3678;60.002;17.846;2022-11-27T22:50:38;22.60;;;9.70;;
7273;SDS011;3678;60.002;17.846;2022-11-27T22:53:07;19.23;;;9.40;;
7273;SDS011;3678;60.002;17.846;2022-11-27T22:55:34;20.93;;;9.47;;
7273;SDS011;3678;60.002;17.846;2022-11-27T22:58:01;24.93;;;9.00;;
7273;SDS011;3678;60.002;17.846;2022-11-27T23:00:28;21.73;;;9.37;;
7273;SDS011;3678;60.002;17.846;2022-11-27T23:02:56;24.90;;;11.63;;
7273;SDS011;3678;60.002;17.846;2022-11-27T23:05:23;24.40;;;9.13;;
7273;SDS011;3678;60.002;17.846;2022-11-27T23:07:51;22.73;;;10.33;;
7273;SDS011;3678;60.002;17.846;2022-11-27T23:10:19;21.53;;;9.03;;
7273;SDS011;3678;60.002;17.846;2022-11-27T23:12:46;20.40;;;9.70;;
7273;SDS011;3678;60.002;17.846;2022-11-27T23:15:14;23.10;;;10.00;;
7273;SDS011;3678;60.002;17.846;2022-11-27T23:17:41;22.50;;;10.17;;
7273;SDS011;3678;60.002;17.846;2022-11-27T23:20:08;21.63;;;9.20;;
7273;SDS011;3678;60.002;17.846;2022-11-27T23:22:35;18.47;;;9.47;;
7273;SDS011;3678;60.002;17.846;2022-11-27T23:25:03;19.57;;;9.30;;
7273;SDS011;3678;60.002;17.846;2022-11-27T23:27:31;16.00;;;9.03;;
7273;SDS011;3678;60.002;17.846;2022-11-27T23:29:59;16.57;;;7.87;;
7273;SDS011;3678;60.002;17.846;2022-11-27T23:32:26;16.23;;;8.73;;
7273;SDS011;3678;60.002;17.846;2022-11-27T23:34:53;17.27;;;8.30;;
7273;SDS011;3678;60.002;17.846;2022-11-27T23:37:20;16.10;;;7.80;;
7273;SDS011;3678;60.002;17.846;2022-11-27T23:39:47;16.80;;;8.40;;
7273;SDS011;3678;60.002;17.846;2022-11-27T23:42:15;20.43;;;9.60;;
7273;SDS011;3678;60.002;17.846;2022-11-27T23:44:43;16.13;;;8.83;;
7273;SDS011;3678;60.002;17.846;2022-11-27T23:47:10;16.17;;;8.57;;
7273;SDS011;3678;60.002;17.846;2022-11-27T23:49:37;17.13;;;8.50;;
7273;SDS011;3678;60.002;17.846;2022-11-27T23:52:05;17.33;;;7.63;;
7273;SDS011;3678;60.002;17.846;2022-11-27T23:54:32;15.60;;;8.17;;
7273;SDS011;3678;60.002;17.846;2022-11-27T23:56:59;19.97;;;8.40;;
7273;SDS011;3678;60.002;17.846;2022-11-27T23:59:27;16.77;;;8.83;;
